Time;durP1;ratioP1;P1;durP2;ratioP2;P2;SDS_P1;SDS_P2;PMS_P1;PMS_P2;Temp;Humidity;BMP_temperature;BMP_pressure;BME280_temperature;BME280_humidity;BME280_pressure;Samples;Min_cycle;Max_cycle;Signal;HPM_P1;HPM_P2
2021/10/21 00:01:28;;;;;;;12.20;10.53;;;13.80;96.30;;;12.73;97.45;96857.25;5034451;28;20454;-77
2021/10/21 00:03:59;;;;;;;13.10;10.60;;;13.90;96.50;;;12.68;98.46;96871.59;5033797;28;20470;-77
2021/10/21 00:06:26;;;;;;;11.50;10.30;;;13.80;97.60;;;12.82;98.72;96871.16;5035521;28;20533;-76
2021/10/21 00:08:53;;;;;;;12.80;10.90;;;13.80;98.50;;;12.80;99.75;96852.44;5033357;28;20478;-76
2021/10/21 00:11:21;;;;;;;14.80;11.07;;;13.80;99.90;;;12.75;100.00;96850.50;5035009;28;20952;-76
2021/10/21 00:13:48;;;;;;;12.83;10.63;;;13.80;99.90;;;12.75;99.82;96847.78;5033730;28;20545;-77
2021/10/21 00:16:17;;;;;;;13.50;12.17;;;13.80;99.90;;;12.37;100.00;96806.28;5035196;28;20937;-78
2021/10/21 00:18:44;;;;;;;11.23;10.13;;;13.70;99.90;;;12.73;100.00;96825.56;5018610;28;20537;-77
2021/10/21 00:21:11;;;;;;;13.80;10.57;;;13.70;99.90;;;12.68;99.83;96838.25;5033617;28;21025;-77
2021/10/21 00:23:38;;;;;;;10.70;9.70;;;13.70;99.40;;;12.61;99.72;96825.75;5036965;28;20510;-77
2021/10/21 00:26:07;;;;;;;10.93;9.90;;;13.70;99.80;;;12.62;99.87;96840.09;5034272;28;20438;-76
2021/10/21 00:28:34;;;;;;;12.20;11.10;;;13.70;99.90;;;12.58;100.00;96844.41;5035516;28;20516;-77
2021/10/21 00:31:02;;;;;;;10.77;9.70;;;13.60;99.90;;;12.53;100.00;96838.94;5035118;28;20483;-77
2021/10/21 00:33:31;;;;;;;10.70;9.70;;;13.60;99.90;;;12.57;99.94;96853.59;5035256;28;20996;-77
2021/10/21 00:35:58;;;;;;;11.53;10.33;;;13.60;99.80;;;12.49;100.00;96837.81;5033529;28;20980;-77
2021/10/21 00:38:25;;;;;;;9.83;8.97;;;13.60;99.90;;;12.38;100.00;96818.75;5035074;28;20454;-77
2021/10/21 00:40:52;;;;;;;10.47;9.50;;;13.50;99.60;;;12.46;99.63;96804.72;5033551;28;20506;-77
2021/10/21 00:43:21;;;;;;;8.50;7.70;;;13.50;98.90;;;12.50;99.64;96802.34;5032759;28;20474;-77
2021/10/21 00:45:48;;;;;;;9.93;9.03;;;13.50;99.90;;;12.56;99.59;96789.66;5033036;28;20458;-75
2021/10/21 00:48:15;;;;;;;8.80;8.00;;;13.50;99.30;;;12.49;99.58;96764.66;5034809;28;20442;-77
2021/10/21 00:50:47;;;;;;;9.87;8.87;;;13.50;99.20;;;12.46;99.83;96758.69;5032703;28;20514;-77
2021/10/21 00:53:15;;;;;;;9.77;8.27;;;13.50;99.90;;;12.46;99.69;96761.41;5033950;28;20481;-77
2021/10/21 00:55:42;;;;;;;10.70;8.50;;;13.50;99.40;;;12.48;99.56;96774.69;5034590;28;20434;-76
2021/10/21 00:58:09;;;;;;;8.83;8.03;;;13.50;99.20;;;12.54;98.69;96794.53;5033586;28;20535;-76
2021/10/21 01:00:36;;;;;;;11.87;7.80;;;13.60;98.10;;;12.48;99.52;96799.06;5034737;28;20474;-77
2021/10/21 01:03:03;;;;;;;8.43;7.53;;;13.50;99.40;;;12.55;99.62;96828.66;5032793;28;20486;-76
2021/10/21 01:05:30;;;;;;;8.20;7.40;;;13.60;99.60;;;12.46;100.00;96810.16;5033882;28;20979;-78
2021/10/21 01:07:59;;;;;;;8.73;7.83;;;13.50;99.90;;;12.45;100.00;96786.84;5034507;28;20481;-77
2021/10/21 01:10:28;;;;;;;9.90;8.90;;;13.50;99.90;;;12.38;100.00;96785.44;5032787;28;20532;-78
2021/10/21 01:12:55;;;;;;;9.07;8.17;;;13.50;99.90;;;12.41;100.00;96777.63;5033171;28;20447;-78
2021/10/21 01:15:26;;;;;;;9.33;8.40;;;13.50;99.90;;;12.37;100.00;96762.97;5034262;28;20465;-78
2021/10/21 01:17:55;;;;;;;8.70;7.80;;;13.50;99.90;;;12.37;100.00;96757.53;5035719;28;20470;-78
2021/10/21 01:20:25;;;;;;;10.13;7.90;;;13.40;99.90;;;12.42;100.00;96752.16;5035186;28;20930;-78
2021/10/21 01:22:54;;;;;;;7.57;6.87;;;13.50;99.90;;;12.30;100.00;96746.09;5034041;28;20469;-77
2021/10/21 01:25:22;;;;;;;8.53;7.37;;;13.40;99.90;;;12.20;100.00;96744.13;5017399;28;20460;-78
2021/10/21 01:27:50;;;;;;;6.90;6.30;;;13.40;99.90;;;12.26;100.00;96739.56;5034273;28;20460;-78
2021/10/21 01:30:20;;;;;;;7.57;6.30;;;13.40;99.90;;;12.31;100.00;96737.72;5038781;28;20509;-79
2021/10/21 01:32:47;;;;;;;8.20;6.20;;;13.40;99.90;;;12.31;100.00;96715.22;5021951;28;20470;-78
2021/10/21 01:35:15;;;;;;;6.80;6.20;;;13.40;99.90;;;12.30;100.00;96705.47;5040011;28;20530;-78
2021/10/21 01:37:43;;;;;;;8.67;5.90;;;13.40;99.90;;;12.29;100.00;96690.31;5041248;28;20453;-78
2021/10/21 01:40:12;;;;;;;4.77;4.37;;;13.30;99.90;;;12.29;100.00;96676.75;5045867;28;20474;-78
2021/10/21 01:42:39;;;;;;;6.00;5.50;;;13.30;99.90;;;12.21;100.00;96682.63;5038980;28;20537;-77
2021/10/21 01:45:19;;;;;;;8.10;5.90;;;13.30;99.90;;;12.25;100.00;96692.69;5037293;28;20450;-78
2021/10/21 01:47:47;;;;;;;6.77;6.10;;;13.30;99.90;;;12.23;100.00;96675.91;5038606;28;20482;-78
2021/10/21 01:50:14;;;;;;;6.53;5.90;;;13.30;99.90;;;12.26;100.00;96675.38;5039100;28;20504;-77
2021/10/21 01:52:43;;;;;;;6.10;5.50;;;13.30;99.90;;;12.26;100.00;96671.88;5038178;28;20765;-78
2021/10/21 01:55:12;;;;;;;7.53;6.83;;;13.30;99.90;;;12.16;100.00;96664.50;5020929;28;20810;-79
2021/10/21 01:57:41;;;;;;;8.23;6.97;;;13.30;99.90;;;12.17;100.00;96669.63;5038433;28;20941;-78
2021/10/21 02:00:12;;;;;;;10.20;8.00;;;13.20;99.90;;;12.16;100.00;96632.81;5037550;28;20786;-78
2021/10/21 02:02:39;;;;;;;8.53;7.33;;;13.20;99.90;;;12.11;100.00;96630.06;5038260;28;20485;-77
2021/10/21 02:05:07;;;;;;;7.17;6.53;;;13.20;99.90;;;11.98;100.00;96638.59;5037727;28;20489;-78
2021/10/21 02:07:34;;;;;;;7.50;6.70;;;13.20;99.90;;;12.12;100.00;96680.44;5036672;28;20545;-78
2021/10/21 02:10:06;;;;;;;8.13;6.53;;;13.20;99.90;;;12.07;100.00;96658.75;5038110;28;20892;-77
2021/10/21 02:12:33;;;;;;;7.10;6.40;;;13.20;99.90;;;11.99;100.00;96605.03;5037589;28;20482;-78
2021/10/21 02:15:00;;;;;;;6.57;5.80;;;13.10;99.90;;;11.86;100.00;96569.22;5037754;28;20442;-78
2021/10/21 02:17:27;;;;;;;5.80;5.30;;;13.00;99.90;;;11.87;100.00;96584.38;5038012;28;20869;-78
2021/10/21 02:19:54;;;;;;;6.17;5.67;;;12.90;99.90;;;11.87;100.00;96570.84;5038442;28;20477;-78
2021/10/21 02:22:21;;;;;;;5.83;5.33;;;12.90;99.90;;;11.80;100.00;96556.72;5038307;28;20480;-77
2021/10/21 02:24:48;;;;;;;4.90;4.50;;;12.90;99.90;;;11.77;100.00;96538.31;5040229;28;20848;-79
2021/10/21 02:27:18;;;;;;;5.10;4.60;;;12.90;99.90;;;11.77;100.00;96527.50;5044366;28;20518;-79
2021/10/21 02:29:45;;;;;;;5.60;4.40;;;12.90;99.90;;;11.74;100.00;96538.81;5031318;28;20480;-79
2021/10/21 02:32:12;;;;;;;5.77;5.17;;;12.90;99.90;;;11.70;100.00;96524.19;5021005;28;20458;-78
2021/10/21 02:34:39;;;;;;;6.17;4.30;;;12.80;99.90;;;11.72;100.00;96530.97;5038451;28;20972;-78
2021/10/21 02:37:06;;;;;;;5.37;4.87;;;12.80;99.90;;;11.81;100.00;96534.00;5037888;28;20435;-78
2021/10/21 02:39:34;;;;;;;5.80;4.43;;;12.80;99.90;;;11.70;100.00;96535.81;5040047;28;20537;-78
2021/10/21 02:42:02;;;;;;;5.37;4.87;;;12.80;99.90;;;11.81;100.00;96542.13;5023244;28;20469;-78
2021/10/21 02:44:31;;;;;;;5.63;4.70;;;12.80;99.90;;;11.72;100.00;96524.72;5040031;28;20450;-78
2021/10/21 02:46:58;;;;;;;6.13;5.63;;;12.80;99.90;;;11.65;100.00;96529.56;5037713;28;20458;-79
2021/10/21 02:49:25;;;;;;;6.57;5.60;;;12.80;99.90;;;11.69;100.00;96509.03;5022599;28;20465;-78
2021/10/21 02:51:52;;;;;;;5.90;5.40;;;12.90;99.90;;;11.73;100.00;96534.47;5039930;28;20471;-78
2021/10/21 02:54:19;;;;;;;7.10;5.10;;;12.80;99.90;;;11.72;100.00;96535.56;5041379;28;20449;-78
2021/10/21 02:56:46;;;;;;;6.10;5.53;;;12.80;99.90;;;11.73;100.00;96526.34;5055721;28;20524;-77
2021/10/21 02:59:13;;;;;;;5.43;4.90;;;12.80;99.90;;;11.74;100.00;96517.16;5040313;28;20582;-77
2021/10/21 03:01:41;;;;;;;5.70;4.90;;;12.80;99.90;;;11.83;100.00;96493.13;5039241;28;20504;-78
2021/10/21 03:04:08;;;;;;;6.27;4.63;;;12.80;99.90;;;11.69;100.00;96465.75;5054057;28;21005;-77
2021/10/21 03:06:35;;;;;;;6.07;5.47;;;12.80;99.90;;;11.71;100.00;96455.47;5040025;28;20458;-77
2021/10/21 03:09:04;;;;;;;6.10;5.60;;;12.80;99.90;;;11.67;100.00;96457.06;5052957;28;20482;-77
2021/10/21 03:11:32;;;;;;;5.40;5.00;;;12.80;99.90;;;11.72;100.00;96482.28;5035825;28;20519;-76
2021/10/21 03:13:59;;;;;;;6.27;5.70;;;12.80;99.90;;;11.74;100.00;96490.09;5036622;28;20465;-76
2021/10/21 03:16:30;;;;;;;5.97;5.47;;;12.80;99.90;;;11.73;100.00;96456.00;5037506;28;20523;-76
2021/10/21 03:18:58;;;;;;;6.00;5.50;;;12.80;99.90;;;11.44;100.00;96415.78;5037620;28;20449;-77
2021/10/21 03:21:25;;;;;;;6.43;5.83;;;12.80;99.90;;;11.59;100.00;96436.72;5038086;28;20534;-77
2021/10/21 03:23:55;;;;;;;5.63;5.03;;;12.70;99.90;;;11.67;100.00;96424.59;5038930;28;20477;-78
2021/10/21 03:26:22;;;;;;;6.70;6.13;;;12.80;99.90;;;11.60;100.00;96404.03;5052392;28;20434;-77
2021/10/21 03:28:50;;;;;;;7.47;6.77;;;12.80;99.90;;;11.60;100.00;96381.56;5041536;28;20509;-77
2021/10/21 03:31:17;;;;;;;7.40;6.70;;;12.80;99.90;;;11.68;100.00;96372.13;5037944;28;21028;-77
2021/10/21 03:33:45;;;;;;;7.00;6.40;;;12.70;99.90;;;11.65;100.00;96368.06;5020619;28;21032;-78
2021/10/21 03:36:13;;;;;;;6.83;6.13;;;12.80;99.90;;;11.70;100.00;96378.09;5036202;28;20462;-77
2021/10/21 03:38:40;;;;;;;9.07;7.60;;;12.80;99.90;;;11.70;100.00;96369.97;5042648;28;20518;-78
2021/10/21 03:41:07;;;;;;;8.47;7.63;;;12.80;99.90;;;11.73;100.00;96377.56;5043793;28;20463;-79
2021/10/21 03:43:34;;;;;;;11.00;9.20;;;12.80;99.90;;;11.76;100.00;96375.16;5040846;28;20504;-77
2021/10/21 03:46:02;;;;;;;8.40;7.60;;;12.80;99.90;;;11.80;100.00;96380.84;5039750;28;20446;-78
2021/10/21 03:48:29;;;;;;;9.20;8.30;;;12.90;99.90;;;11.83;100.00;96388.44;5030065;28;20482;-77
2021/10/21 03:50:56;;;;;;;8.60;7.80;;;12.90;99.90;;;11.92;100.00;96390.66;5039552;28;20502;-79
2021/10/21 03:53:24;;;;;;;9.97;8.30;;;13.00;99.90;;;11.95;100.00;96379.28;5044210;28;20453;-78
2021/10/21 03:55:52;;;;;;;8.60;7.70;;;13.00;99.90;;;11.97;100.00;96393.38;5033815;28;20458;-78
2021/10/21 03:58:19;;;;;;;8.60;7.80;;;13.00;99.90;;;11.93;100.00;96416.63;5052039;28;20463;-78
2021/10/21 04:00:47;;;;;;;9.33;8.43;;;13.10;99.90;;;12.07;100.00;96412.41;5049006;28;20451;-79
2021/10/21 04:03:14;;;;;;;8.10;7.30;;;13.10;99.90;;;12.09;100.00;96417.53;5044485;28;20457;-78
2021/10/21 04:05:41;;;;;;;8.37;7.47;;;13.10;99.90;;;12.18;100.00;96388.88;5051770;28;20946;-77
2021/10/21 04:08:08;;;;;;;8.73;7.17;;;13.20;99.90;;;12.18;100.00;96380.75;5068358;28;20922;-77
2021/10/21 04:10:36;;;;;;;11.50;9.63;;;13.30;99.90;;;12.18;100.00;96376.16;5057698;28;20461;-78
2021/10/21 04:13:04;;;;;;;9.33;8.43;;;13.30;99.90;;;12.18;100.00;96375.34;5056163;28;20442;-78
2021/10/21 04:15:31;;;;;;;8.90;8.00;;;13.30;99.90;;;12.28;100.00;96369.16;5043164;28;20526;-78
2021/10/21 04:17:58;;;;;;;10.13;7.70;;;13.30;99.90;;;12.24;100.00;96368.06;5043837;28;20459;-78
2021/10/21 04:20:25;;;;;;;9.50;8.70;;;13.30;99.90;;;12.32;100.00;96381.06;5027024;28;20489;-78
2021/10/21 04:22:52;;;;;;;8.93;8.03;;;13.40;99.90;;;12.29;100.00;96344.53;5044423;28;20469;-78
2021/10/21 04:25:19;;;;;;;9.10;7.73;;;13.40;99.90;;;11.99;100.00;96291.06;5063145;28;20461;-78
2021/10/21 04:27:48;;;;;;;9.43;8.40;;;13.40;99.90;;;12.07;100.00;96320.38;5067077;28;20897;-78
2021/10/21 04:30:18;;;;;;;10.10;9.03;;;13.40;99.90;;;12.26;100.00;96349.66;5063160;28;20476;-77
2021/10/21 04:32:45;;;;;;;10.30;9.30;;;13.40;99.90;;;12.40;100.00;96366.19;5059757;28;20441;-77
2021/10/21 04:35:12;;;;;;;10.10;8.20;;;13.50;99.90;;;12.50;100.00;96387.06;5056697;28;20457;-78
2021/10/21 04:37:39;;;;;;;11.00;10.00;;;13.50;99.90;;;12.52;100.00;96390.34;5058440;28;20520;-77
2021/10/21 04:40:08;;;;;;;11.17;10.07;;;13.60;99.90;;;12.63;100.00;96378.41;5056275;28;20491;-77
2021/10/21 04:42:36;;;;;;;11.43;10.27;;;13.70;99.90;;;12.70;100.00;96383.56;5054907;28;20968;-76
2021/10/21 04:45:05;;;;;;;15.00;13.60;;;13.70;99.90;;;12.71;100.00;96387.91;5054638;28;20453;-77
2021/10/21 04:47:32;;;;;;;16.13;14.33;;;13.80;99.90;;;12.68;100.00;96366.78;5040989;28;20493;-76
2021/10/21 04:49:59;;;;;;;13.80;12.40;;;13.80;99.90;;;12.81;100.00;96354.59;5036533;28;20470;-77
2021/10/21 04:52:27;;;;;;;10.83;9.73;;;13.90;98.50;;;12.88;98.20;96363.28;5039226;28;20497;-78
2021/10/21 04:54:54;;;;;;;12.93;9.53;;;13.90;96.30;;;12.95;97.56;96381.97;5050695;28;20452;-78
2021/10/21 04:57:21;;;;;;;9.83;8.90;;;14.00;95.70;;;12.89;96.85;96357.59;5061531;28;20452;-76
2021/10/21 04:59:48;;;;;;;8.80;7.90;;;14.10;94.70;;;13.10;96.42;96371.13;5074723;28;20448;-76
2021/10/21 05:02:17;;;;;;;9.73;8.83;;;14.10;95.20;;;13.07;96.86;96379.81;5033601;28;20479;-76
2021/10/21 05:04:44;;;;;;;8.67;7.87;;;14.10;95.60;;;13.14;96.45;96379.53;5042920;28;20447;-75
2021/10/21 05:07:11;;;;;;;11.13;9.40;;;14.10;95.00;;;13.06;96.90;96385.50;5055604;28;20477;-77
2021/10/21 05:09:39;;;;;;;8.13;7.33;;;14.10;95.40;;;12.93;95.27;96355.13;5052495;28;20435;-77
2021/10/21 05:12:06;;;;;;;9.40;7.40;;;14.20;94.10;;;13.17;95.28;96379.78;5052465;28;20553;-77
2021/10/21 05:14:33;;;;;;;8.50;7.70;;;14.20;94.00;;;13.00;94.98;96388.22;5050033;28;20941;-77
2021/10/21 05:17:00;;;;;;;8.00;7.17;;;14.20;93.40;;;13.21;94.46;96414.50;5056453;28;20461;-77
2021/10/21 05:19:29;;;;;;;7.00;6.40;;;14.20;93.30;;;13.26;93.86;96415.31;5062669;28;20499;-76
2021/10/21 05:21:56;;;;;;;9.30;7.30;;;14.20;93.00;;;13.22;93.65;96416.94;5064317;28;20461;-76
2021/10/21 05:24:23;;;;;;;7.10;6.50;;;14.30;92.80;;;13.24;93.52;96422.91;5067392;28;20449;-77
2021/10/21 05:26:51;;;;;;;6.77;6.13;;;14.30;92.90;;;13.17;93.77;96422.38;5064746;28;20519;-75
2021/10/21 05:29:18;;;;;;;8.27;7.47;;;14.20;92.60;;;13.18;93.22;96413.94;5061828;28;20502;-74
2021/10/21 05:31:46;;;;;;;6.40;5.77;;;14.20;92.30;;;12.98;92.89;96389.56;5046658;28;20458;-76
2021/10/21 05:34:13;;;;;;;5.53;4.70;;;14.20;91.90;;;13.21;91.11;96418.03;5049929;28;20454;-76
2021/10/21 05:36:44;;;;;;;5.80;5.00;;;14.20;91.00;;;13.27;90.06;96421.56;5044462;28;20452;-75
2021/10/21 05:39:12;;;;;;;5.60;3.80;;;14.30;90.30;;;13.37;87.42;96426.16;5032006;28;20466;-76
2021/10/21 05:41:39;;;;;;;6.10;2.90;;;14.30;87.80;;;13.40;84.08;96425.59;5026649;28;20471;-76
2021/10/21 05:44:06;;;;;;;3.10;2.57;;;14.40;85.00;;;13.49;83.00;96440.28;5023826;28;20808;-75
2021/10/21 05:46:34;;;;;;;2.97;2.30;;;14.50;83.90;;;13.53;78.29;96443.28;5032519;28;20747;-75
2021/10/21 05:49:01;;;;;;;2.47;2.00;;;14.50;80.10;;;13.49;74.71;96424.00;5035534;28;20484;-76
2021/10/21 05:51:28;;;;;;;1.73;1.60;;;14.60;76.00;;;13.54;73.15;96450.31;5032581;28;20486;-75
2021/10/21 05:53:56;;;;;;;2.80;1.43;;;14.60;73.80;;;13.53;69.08;96441.34;5040612;28;20470;-76
2021/10/21 05:56:23;;;;;;;1.20;0.90;;;14.60;70.00;;;13.51;62.71;96467.94;5027341;28;20510;-75
2021/10/21 05:58:50;;;;;;;2.40;0.60;;;14.60;63.20;;;13.42;62.40;96467.66;5032725;28;20497;-75
2021/10/21 06:01:18;;;;;;;1.50;1.27;;;14.60;62.40;;;13.32;62.22;96479.31;5039269;28;20456;-75
2021/10/21 06:03:45;;;;;;;1.97;0.70;;;14.40;61.80;;;13.25;61.68;96472.53;5040319;28;20454;-74
2021/10/21 06:06:13;;;;;;;2.40;1.20;;;14.30;60.90;;;13.14;62.16;96488.00;5035393;28;20512;-76
2021/10/21 06:08:40;;;;;;;2.30;0.90;;;14.20;61.10;;;13.14;61.13;96479.88;5034748;28;20542;-75
2021/10/21 06:11:10;;;;;;;2.83;0.50;;;14.20;60.20;;;13.08;61.47;96508.03;5033805;28;20553;-75
2021/10/21 06:13:37;;;;;;;4.80;1.10;;;14.20;60.20;;;13.01;62.21;96509.13;5033344;28;20549;-74
2021/10/21 06:16:06;;;;;;;1.10;0.83;;;14.10;60.50;;;12.95;62.45;96514.78;5035728;28;20447;-74
2021/10/21 06:18:34;;;;;;;1.73;0.70;;;14.00;60.70;;;12.92;62.89;96518.84;5033596;28;20518;-76
2021/10/21 06:21:02;;;;;;;2.43;0.97;;;14.00;61.00;;;12.79;63.73;96513.94;5035159;28;20445;-76
2021/10/21 06:23:29;;;;;;;1.73;0.87;;;13.90;61.40;;;12.66;64.51;96529.63;5036921;28;20478;-76
2021/10/21 06:25:56;;;;;;;3.70;0.87;;;13.80;62.10;;;12.72;64.06;96546.69;5037223;28;20443;-76
2021/10/21 06:28:25;;;;;;;1.63;0.60;;;13.80;61.70;;;12.73;63.15;96545.63;5037550;28;20443;-76
2021/10/21 06:30:52;;;;;;;1.73;0.80;;;13.80;60.90;;;12.74;63.35;96555.41;5039385;28;20929;-76
2021/10/21 06:33:19;;;;;;;3.93;0.90;;;13.80;61.10;;;12.70;63.56;96555.09;5038159;28;20443;-75
2021/10/21 06:35:46;;;;;;;3.77;0.93;;;13.80;61.00;;;12.78;63.36;96572.75;5039701;28;20481;-77
2021/10/21 06:38:16;;;;;;;2.13;1.10;;;13.90;61.10;;;12.91;62.89;96560.59;5041869;28;20463;-75
2021/10/21 06:40:43;;;;;;;3.93;0.77;;;13.90;60.70;;;12.95;62.56;96566.31;5036965;28;20534;-76
2021/10/21 06:43:10;;;;;;;2.33;1.00;;;14.00;60.60;;;12.93;62.68;96579.31;5037972;28;20961;-75
2021/10/21 06:45:38;;;;;;;2.17;0.90;;;14.00;60.60;;;12.96;62.23;96592.31;5036741;28;20958;-74
2021/10/21 06:48:05;;;;;;;3.27;0.97;;;14.00;60.10;;;12.95;61.73;96582.56;5036497;28;20434;-74
2021/10/21 06:50:33;;;;;;;3.33;0.70;;;14.00;59.60;;;12.86;61.94;96563.28;5046615;28;20827;-78
2021/10/21 06:53:00;;;;;;;1.20;0.80;;;14.10;59.90;;;13.10;61.21;96596.16;5041557;28;20466;-77
2021/10/21 06:55:27;;;;;;;2.53;0.90;;;14.10;59.40;;;13.02;60.62;96605.63;5041633;28;20566;-77
2021/10/21 06:57:58;;;;;;;3.07;0.90;;;14.10;58.90;;;12.75;61.05;96571.38;5046114;28;20448;-77
2021/10/21 07:00:27;;;;;;;1.23;0.70;;;13.90;58.80;;;12.77;60.39;96594.69;5039304;28;20450;-77
2021/10/21 07:02:57;;;;;;;9.03;1.00;;;13.80;58.50;;;12.70;61.21;96589.50;5039590;28;20438;-77
2021/10/21 07:05:26;;;;;;;2.90;0.93;;;13.80;58.90;;;12.75;60.91;96612.03;5049886;28;20439;-77
2021/10/21 07:07:54;;;;;;;1.63;0.77;;;13.80;58.70;;;12.82;61.04;96611.78;5043922;28;20461;-77
2021/10/21 07:10:22;;;;;;;2.47;1.30;;;13.80;58.80;;;12.68;61.11;96622.31;5040850;28;20438;-77
2021/10/21 07:12:50;;;;;;;7.43;1.00;;;13.80;58.60;;;12.73;61.28;96618.78;5039574;28;20957;-76
2021/10/21 07:15:18;;;;;;;4.97;1.10;;;13.80;58.80;;;12.45;62.05;96613.50;5038278;28;20454;-77
2021/10/21 07:17:45;;;;;;;8.90;1.00;;;13.60;59.10;;;12.40;62.40;96610.75;5039785;28;20529;-77
2021/10/21 07:20:14;;;;;;;2.77;1.00;;;13.60;59.40;;;12.23;63.10;96618.25;5038321;28;20454;-75
2021/10/21 07:22:41;;;;;;;2.40;1.03;;;13.50;59.80;;;12.33;62.66;96639.94;5035314;28;20454;-76
2021/10/21 07:25:09;;;;;;;7.03;1.40;;;13.40;59.50;;;12.21;61.26;96601.41;5035204;28;20438;-77
2021/10/21 07:27:36;;;;;;;3.20;0.90;;;13.40;58.50;;;12.53;60.32;96606.75;5034047;28;20451;-76
2021/10/21 07:30:04;;;;;;;5.60;1.13;;;13.60;58.20;;;12.49;59.26;96610.25;5035334;28;20454;-77
2021/10/21 07:32:33;;;;;;;3.00;0.90;;;13.70;57.40;;;12.68;59.06;96635.03;5038141;28;20471;-77
2021/10/21 07:35:00;;;;;;;7.20;1.20;;;13.80;57.30;;;12.93;57.66;96655.22;5026886;28;20482;-76
2021/10/21 07:37:28;;;;;;;4.93;1.17;;;14.00;56.80;;;13.19;55.86;96664.25;5013487;28;20477;-77
2021/10/21 07:39:55;;;;;;;1.30;0.80;;;14.20;55.70;;;13.34;56.10;96665.41;5017520;28;21345;-77
2021/10/21 07:42:22;;;;;;;10.90;1.73;;;14.40;55.60;;;13.32;55.82;96652.09;5037231;28;20486;-77
2021/10/21 07:44:49;;;;;;;7.60;1.30;;;14.40;55.50;;;13.31;55.80;96672.97;5040407;28;20438;-77
2021/10/21 07:47:18;;;;;;;4.87;1.43;;;14.40;55.40;;;13.49;55.73;96686.34;5025523;28;20443;-76
2021/10/21 07:49:46;;;;;;;3.50;1.23;;;14.50;55.40;;;13.32;56.59;96692.78;5024813;28;20545;-76
2021/10/21 07:52:16;;;;;;;3.60;1.33;;;14.40;55.60;;;13.32;56.36;96676.50;5026757;28;20996;-76
2021/10/21 07:54:44;;;;;;;2.23;1.10;;;14.40;55.70;;;13.29;57.20;96698.72;5024801;28;20983;-76
2021/10/21 07:57:13;;;;;;;3.93;0.93;;;14.40;56.10;;;13.14;57.40;96710.34;5024591;28;20486;-76
2021/10/21 07:59:40;;;;;;;4.27;1.17;;;14.20;55.90;;;12.96;57.49;96688.00;5026588;28;20454;-75
2021/10/21 08:02:07;;;;;;;3.63;1.10;;;14.20;55.90;;;13.03;57.68;96731.97;5024376;28;20844;-76
2021/10/21 08:04:35;;;;;;;6.37;1.40;;;14.10;56.10;;;13.03;57.35;96731.97;5019935;28;20446;-76
2021/10/21 08:07:03;;;;;;;3.23;1.00;;;14.20;55.90;;;13.01;57.12;96744.16;5024858;28;20512;-76
2021/10/21 08:09:31;;;;;;;5.47;1.20;;;14.10;55.70;;;13.03;57.71;96750.94;5028644;28;20480;-77
2021/10/21 08:12:01;;;;;;;5.13;1.00;;;14.10;56.10;;;12.97;57.81;96765.56;5025245;28;20467;-75
2021/10/21 08:14:29;;;;;;;4.90;0.93;;;14.10;56.00;;;12.92;57.64;96770.94;5029684;28;20438;-79
2021/10/21 08:16:57;;;;;;;3.07;1.47;;;14.00;55.80;;;12.91;57.28;96772.03;5032793;28;20840;-78
2021/10/21 08:19:25;;;;;;;2.20;0.90;;;14.00;55.60;;;12.63;57.01;96737.97;5030906;28;20865;-77
2021/10/21 08:21:52;;;;;;;5.77;1.10;;;14.00;55.60;;;12.97;57.44;96781.84;5031789;28;20443;-76
2021/10/21 08:24:21;;;;;;;3.30;0.87;;;14.00;55.80;;;12.90;56.94;96797.50;5024224;28;20861;-76
2021/10/21 08:26:49;;;;;;;2.13;1.00;;;14.00;55.40;;;13.03;55.85;96797.03;5030530;28;20462;-77
2021/10/21 08:29:19;;;;;;;6.30;1.23;;;14.10;54.90;;;13.14;56.12;96813.38;5029389;28;20470;-78
2021/10/21 08:31:46;;;;;;;2.80;0.70;;;14.20;55.10;;;12.82;55.64;96730.25;5026671;28;20472;-77
2021/10/21 08:34:13;;;;;;;2.37;1.00;;;14.20;54.70;;;13.14;55.92;96824.25;5029025;28;20454;-77
2021/10/21 08:36:40;;;;;;;6.60;1.03;;;14.20;55.00;;;13.09;55.41;96827.72;5030094;28;20919;-76
2021/10/21 08:39:07;;;;;;;3.37;0.80;;;14.20;54.40;;;13.20;55.35;96857.63;5025562;28;20451;-75
2021/10/21 08:41:35;;;;;;;4.20;0.77;;;14.20;54.50;;;13.21;54.88;96865.50;5026492;28;21034;-74
2021/10/21 08:44:02;;;;;;;3.57;0.90;;;14.30;54.20;;;13.24;54.54;96862.25;5039212;28;20506;-77
2021/10/21 08:46:31;;;;;;;6.27;0.83;;;14.30;54.10;;;13.20;54.58;96888.25;5019511;28;20463;-72
2021/10/21 08:49:00;;;;;;;1.57;0.80;;;14.30;54.10;;;13.02;54.59;96868.63;5024983;28;20486;-75
2021/10/21 08:51:28;;;;;;;5.87;0.67;;;14.20;53.80;;;13.09;54.44;96897.41;5026650;28;20559;-77
2021/10/21 08:53:55;;;;;;;5.10;0.80;;;14.20;53.60;;;12.95;54.69;96918.72;5028073;28;20577;-76
2021/10/21 08:56:23;;;;;;;3.23;0.63;;;14.10;53.70;;;13.04;54.42;96907.13;5026349;28;20848;-75
2021/10/21 08:58:52;;;;;;;2.87;0.90;;;14.10;53.60;;;12.96;54.51;96959.09;5026001;28;20965;-75
2021/10/21 09:01:21;;;;;;;7.40;0.90;;;14.10;53.50;;;13.03;54.85;96938.03;5025970;28;20556;-75
2021/10/21 09:03:59;;;;;;;5.80;0.50;;;14.10;53.80;;;13.09;55.20;96941.59;5026562;28;20537;-75
2021/10/21 09:06:35;;;;;;;0.90;0.50;;;14.20;54.10;;;13.10;55.23;96954.09;5025683;28;20459;-75
2021/10/21 09:09:02;;;;;;;2.73;0.93;;;14.20;54.00;;;13.19;55.22;96940.88;5023208;28;20546;-75
2021/10/21 09:11:29;;;;;;;3.87;0.60;;;14.20;54.20;;;13.12;55.17;96957.34;5026144;28;20513;-75
2021/10/21 09:14:11;;;;;;;2.90;0.57;;;14.20;53.90;;;12.80;54.82;96927.50;5025765;28;20494;-76
2021/10/21 09:16:39;;;;;;;11.80;0.80;;;14.20;53.90;;;12.99;54.99;97010.13;5024489;28;20462;-75
2021/10/21 09:19:10;;;;;;;6.40;0.83;;;14.10;53.70;;;12.89;55.61;96980.19;5027004;28;20452;-75
2021/10/21 09:21:39;;;;;;;3.80;0.80;;;14.10;54.10;;;12.92;56.11;96995.94;5020826;28;20483;-74
2021/10/21 09:24:29;;;;;;;1.13;0.53;;;14.00;54.30;;;12.59;56.02;96943.56;5024184;28;20469;-75
2021/10/21 09:27:09;;;;;;;3.23;0.40;;;14.00;54.40;;;12.94;56.49;97014.66;5025959;28;20454;-75
2021/10/21 09:29:38;;;;;;;5.93;1.00;;;14.00;54.50;;;12.81;56.72;96999.59;5023427;28;21002;-76
2021/10/21 09:32:12;;;;;;;2.30;0.50;;;13.90;54.50;;;12.86;56.67;97016.75;5024462;28;20554;-75
2021/10/21 09:34:53;;;;;;;0.87;0.57;;;14.00;54.60;;;13.06;56.25;96995.53;5023801;28;20527;-76
2021/10/21 09:37:23;;;;;;;3.13;0.50;;;14.10;54.70;;;12.88;56.29;97017.31;5024382;28;20801;-75
2021/10/21 09:39:52;;;;;;;2.50;0.53;;;14.10;54.50;;;12.99;55.88;96990.31;5025856;28;20516;-75
2021/10/21 09:42:24;;;;;;;1.37;0.40;;;14.10;54.40;;;12.98;55.70;97027.47;5023606;28;20635;-75
2021/10/21 09:44:51;;;;;;;1.80;0.40;;;14.10;54.20;;;12.95;56.00;97022.53;5023373;28;20542;-74
2021/10/21 09:47:22;;;;;;;1.90;0.53;;;14.10;54.30;;;12.87;56.18;97066.38;5021931;28;21051;-75
2021/10/21 09:49:56;;;;;;;0.80;0.30;;;14.00;54.30;;;12.87;56.61;97063.66;5024455;28;20785;-69
2021/10/21 09:52:25;;;;;;;2.43;0.60;;;14.00;54.50;;;13.00;56.00;97086.84;5020903;28;20559;-71
2021/10/21 09:54:53;;;;;;;1.63;0.33;;;14.10;54.50;;;12.78;56.47;97097.69;5013626;28;20463;-76
2021/10/21 09:57:30;;;;;;;1.83;0.63;;;14.00;54.30;;;12.81;56.63;97110.75;5023435;28;20461;-77
2021/10/21 10:00:04;;;;;;;0.70;0.20;;;13.90;54.70;;;12.82;56.58;97096.94;5028908;28;20970;-78
2021/10/21 10:02:33;;;;;;;1.03;0.40;;;13.90;54.40;;;12.78;56.14;97103.13;5029969;28;20468;-75
2021/10/21 10:05:04;;;;;;;0.70;0.50;;;14.00;54.20;;;12.77;56.38;97106.91;5028369;28;20484;-76
2021/10/21 10:07:34;;;;;;;0.60;0.40;;;13.90;54.30;;;12.75;56.71;97107.16;5028243;28;20450;-76
2021/10/21 10:10:01;;;;;;;0.80;0.33;;;13.90;54.50;;;12.72;56.97;97116.63;5031726;28;20468;-78
2021/10/21 10:12:30;;;;;;;0.60;0.30;;;13.80;54.50;;;12.57;56.84;97114.50;5032042;28;20807;-73
2021/10/21 10:14:58;;;;;;;3.80;0.70;;;13.80;54.30;;;12.63;56.72;97118.09;5031563;28;20451;-76
2021/10/21 10:17:27;;;;;;;1.23;0.40;;;13.80;54.40;;;12.65;56.87;97129.50;5031564;28;20490;-76
2021/10/21 10:19:55;;;;;;;1.60;0.60;;;13.80;54.60;;;12.67;57.30;97121.16;5031386;28;20469;-76